Time;durP1;ratioP1;P1;durP2;ratioP2;P2;SDS_P1;SDS_P2;PMS_P1;PMS_P2;Temp;Humidity;BMP_temperature;BMP_pressure;BME280_temperature;BME280_humidity;BME280_pressure;Samples;Min_cycle;Max_cycle;Signal;HPM_P1;HPM_P2
2021/03/18 00:01:19;;;;;;;12.23;3.40;;;;;;;4.90;58.13;99545.97;1662333;86;21085;-62
2021/03/18 00:03:48;;;;;;;8.13;3.15;;;;;;;4.88;58.25;99543.44;1664956;85;21792;-62
2021/03/18 00:06:15;;;;;;;9.05;3.20;;;;;;;4.87;58.30;99547.19;1664976;86;21359;-63
2021/03/18 00:08:44;;;;;;;11.80;3.50;;;;;;;4.86;58.14;99546.85;1665009;86;21512;-62
2021/03/18 00:11:14;;;;;;;12.47;3.65;;;;;;;4.78;58.29;99550.48;1664952;85;21327;-64
2021/03/18 00:13:42;;;;;;;13.70;4.50;;;;;;;4.74;58.39;99555.94;1665026;86;21272;-62
2021/03/18 00:16:10;;;;;;;8.58;3.60;;;;;;;4.73;58.64;99548.82;1665032;86;21085;-62
2021/03/18 00:18:42;;;;;;;15.60;3.30;;;;;;;4.75;58.69;99553.55;1664929;85;21084;-63
2021/03/18 00:21:09;;;;;;;13.45;4.00;;;;;;;4.74;58.74;99551.86;1664969;85;21105;-63
2021/03/18 00:23:36;;;;;;;11.18;3.67;;;;;;;4.75;58.84;99547.28;1664881;86;21065;-63
2021/03/18 00:26:04;;;;;;;10.93;3.77;;;;;;;4.78;58.85;99549.63;1664889;85;21232;-61
2021/03/18 00:28:32;;;;;;;9.03;4.12;;;;;;;4.78;58.90;99543.69;1664852;85;21342;-63
2021/03/18 00:30:59;;;;;;;14.50;4.62;;;;;;;4.78;58.89;99546.41;1664875;85;21185;-62
2021/03/18 00:33:28;;;;;;;11.57;4.40;;;;;;;4.75;58.87;99544.05;1664964;86;21423;-62
2021/03/18 00:35:56;;;;;;;11.68;4.50;;;;;;;4.71;58.99;99534.59;1665009;85;21246;-62
2021/03/18 00:38:24;;;;;;;12.33;3.77;;;;;;;4.71;59.07;99540.02;1664906;86;21088;-62
2021/03/18 00:40:59;;;;;;;10.53;4.12;;;;;;;4.71;58.86;99549.52;1664826;85;21113;-62
2021/03/18 00:43:26;;;;;;;10.75;4.15;;;;;;;4.71;58.95;99549.52;1664937;86;21339;-62
2021/03/18 00:45:54;;;;;;;8.40;3.72;;;;;;;4.68;58.82;99543.09;1665010;86;21112;-60
2021/03/18 00:48:22;;;;;;;10.03;3.42;;;;;;;4.64;58.77;99545.83;1664943;86;21088;-62
2021/03/18 00:50:57;;;;;;;12.53;3.10;;;;;;;4.63;58.70;99544.15;1665000;86;21068;-63
2021/03/18 00:53:41;;;;;;;7.17;2.83;;;;;;;4.62;58.83;99540.26;1664955;85;21096;-62
2021/03/18 00:56:12;;;;;;;9.65;3.08;;;;;;;4.62;58.70;99545.17;1641758;86;21262;-62
2021/03/18 00:58:42;;;;;;;10.05;2.90;;;;;;;4.61;58.50;99544.84;1665093;85;21065;-62
2021/03/18 01:01:12;;;;;;;12.82;3.12;;;;;;;4.58;58.43;99549.27;1665202;85;21088;-62
2021/03/18 01:03:42;;;;;;;8.03;2.87;;;;;;;4.57;58.45;99542.16;1665031;86;21196;-62
2021/03/18 01:06:27;;;;;;;9.73;2.98;;;;;;;4.60;58.37;99546.38;1665069;85;21195;-62
2021/03/18 01:08:57;;;;;;;6.75;2.90;;;;;;;4.59;58.36;99540.11;1664996;86;21089;-62
2021/03/18 01:11:36;;;;;;;10.88;3.10;;;;;;;4.59;58.43;99535.20;1665001;85;21888;-62
2021/03/18 01:14:07;;;;;;;6.22;2.90;;;;;;;4.60;58.20;99536.88;1665121;86;21758;-62
2021/03/18 01:16:43;;;;;;;15.28;3.17;;;;;;;4.59;58.09;99536.03;1665033;85;21234;-61
2021/03/18 01:19:11;;;;;;;10.50;2.67;;;;;;;4.58;58.11;99537.58;1664936;86;21092;-61
2021/03/18 01:21:42;;;;;;;8.30;2.77;;;;;;;4.60;58.07;99529.59;1664920;85;21064;-62
2021/03/18 01:24:10;;;;;;;10.72;3.40;;;;;;;4.61;58.02;99524.50;1665013;85;21299;-61
2021/03/18 01:26:42;;;;;;;10.38;2.65;;;;;;;4.61;57.96;99527.20;1664962;85;21789;-62
2021/03/18 01:29:11;;;;;;;7.60;2.98;;;;;;;4.63;57.87;99525.67;1665125;85;21171;-61
2021/03/18 01:31:39;;;;;;;8.50;2.77;;;;;;;4.65;57.87;99526.33;1664972;85;21287;-63
2021/03/18 01:34:07;;;;;;;10.80;3.12;;;;;;;4.65;57.73;99525.81;1664955;85;21406;-63
2021/03/18 01:36:35;;;;;;;9.75;3.05;;;;;;;4.63;57.57;99526.52;1664958;86;21061;-62
2021/03/18 01:39:05;;;;;;;8.25;3.00;;;;;;;4.65;57.51;99531.24;1664975;86;21108;-63
2021/03/18 01:41:33;;;;;;;8.83;2.87;;;;;;;4.66;57.35;99526.16;1664985;85;21256;-63
2021/03/18 01:44:03;;;;;;;13.15;4.53;;;;;;;4.66;57.47;99528.02;1665136;86;21376;-62
2021/03/18 01:46:30;;;;;;;8.63;2.75;;;;;;;4.69;57.33;99530.37;1665034;85;21191;-61
2021/03/18 01:48:58;;;;;;;8.58;2.77;;;;;;;4.68;57.14;99525.97;1665012;86;21238;-64
2021/03/18 01:51:25;;;;;;;11.15;3.05;;;;;;;4.64;57.13;99524.64;1665096;85;21243;-62
2021/03/18 01:53:53;;;;;;;11.40;3.52;;;;;;;4.62;57.27;99528.05;1665097;85;21195;-62
2021/03/18 01:56:21;;;;;;;9.43;2.98;;;;;;;4.60;57.20;99535.02;1664917;85;21363;-62
2021/03/18 01:58:48;;;;;;;13.78;3.90;;;;;;;4.54;57.22;99530.28;1650621;86;21374;-63
2021/03/18 02:01:18;;;;;;;10.40;3.17;;;;;;;4.52;57.34;99532.33;1638904;87;21208;-63
2021/03/18 02:03:47;;;;;;;12.82;3.42;;;;;;;4.48;57.41;99527.44;1655202;85;21067;-62
2021/03/18 02:06:15;;;;;;;8.70;3.10;;;;;;;4.46;57.48;99528.98;1655341;86;21064;-62
2021/03/18 02:08:42;;;;;;;12.13;3.08;;;;;;;4.47;57.45;99537.45;1655186;86;21380;-64
2021/03/18 02:11:10;;;;;;;10.45;3.25;;;;;;;4.45;57.55;99528.14;1655131;86;21064;-63
2021/03/18 02:13:37;;;;;;;10.90;3.35;;;;;;;4.48;57.52;99533.71;1655106;86;21095;-65
2021/03/18 02:16:08;;;;;;;8.53;3.10;;;;;;;4.46;57.55;99533.05;1655228;86;21361;-63
2021/03/18 02:18:50;;;;;;;16.55;3.22;;;;;;;4.42;57.56;99532.56;1655230;86;21084;-62
2021/03/18 02:21:51;;;;;;;9.20;2.87;;;;;;;4.40;57.76;99541.39;1655170;86;21274;-61
2021/03/18 02:24:39;;;;;;;8.88;3.12;;;;;;;4.42;57.87;99537.14;1655237;85;21092;-64
2021/03/18 02:27:09;;;;;;;;;;;;;;;4.39;58.06;99534.78;1662855;85;21440;-62
2021/03/18 02:30:12;;;;;;;12.63;3.08;;;;;;;4.36;58.20;99535.14;1631005;88;20319;-62
2021/03/18 02:33:02;;;;;;;8.08;2.52;;;;;;;4.29;58.40;99540.95;1663943;85;21931;-61
2021/03/18 02:35:35;;;;;;;9.30;3.05;;;;;;;4.23;58.67;99540.31;1678348;85;21336;-63
2021/03/18 02:38:25;;;;;;;7.15;2.83;;;;;;;4.23;58.90;99533.53;1678187;85;21777;-61
2021/03/18 02:40:58;;;;;;;7.03;2.75;;;;;;;4.26;58.95;99538.59;1678281;85;21221;-61
2021/03/18 02:43:26;;;;;;;11.73;2.77;;;;;;;4.27;59.03;99533.51;1678658;84;21082;-63
2021/03/18 02:45:58;;;;;;;13.03;2.72;;;;;;;4.31;58.97;99535.69;1678385;85;21178;-64
2021/03/18 02:48:30;;;;;;;10.70;2.80;;;;;;;4.35;58.91;99534.81;1678226;85;21457;-62
2021/03/18 02:50:58;;;;;;;11.60;2.77;;;;;;;4.37;58.57;99546.33;1678273;85;21121;-64
2021/03/18 02:53:27;;;;;;;13.78;3.17;;;;;;;4.38;58.51;99548.02;1678322;85;21315;-63
2021/03/18 02:55:54;;;;;;;9.88;3.70;;;;;;;4.37;58.64;99554.46;1673652;85;21336;-63
2021/03/18 02:58:24;;;;;;;8.95;3.70;;;;;;;4.31;58.95;99551.95;1653396;85;21075;-64
2021/03/18 03:00:52;;;;;;;9.25;3.45;;;;;;;4.26;59.33;99553.51;1670931;85;21437;-62
2021/03/18 03:03:21;;;;;;;9.05;3.15;;;;;;;4.21;59.67;99560.82;1668319;85;21769;-61
2021/03/18 03:05:53;;;;;;;9.23;3.47;;;;;;;4.23;59.89;99555.22;1670604;86;21055;-61
2021/03/18 03:08:22;;;;;;;9.60;3.62;;;;;;;4.24;59.97;99556.91;1670675;86;21842;-62
2021/03/18 03:10:57;;;;;;;9.43;3.02;;;;;;;4.25;59.97;99551.31;1670654;86;21082;-63
2021/03/18 03:13:27;;;;;;;13.40;3.10;;;;;;;4.27;59.86;99559.27;1670857;86;21286;-63
2021/03/18 03:15:58;;;;;;;10.38;3.17;;;;;;;4.25;59.82;99561.31;1670743;85;21197;-60
2021/03/18 03:18:25;;;;;;;10.63;2.90;;;;;;;4.25;59.84;99562.16;1670783;85;21189;-61
2021/03/18 03:20:54;;;;;;;10.15;3.10;;;;;;;4.23;59.62;99562.00;1670733;86;21091;-62
2021/03/18 03:23:24;;;;;;;10.80;3.00;;;;;;;4.16;59.76;99557.80;1670747;85;21063;-63
2021/03/18 03:25:51;;;;;;;10.18;3.08;;;;;;;4.15;59.93;99556.11;1670833;86;21319;-63
2021/03/18 03:28:18;;;;;;;7.78;2.62;;;;;;;4.14;59.99;99557.98;1670793;86;21374;-61
2021/03/18 03:30:46;;;;;;;10.38;3.30;;;;;;;4.13;60.08;99556.80;1670738;85;21278;-62
2021/03/18 03:33:13;;;;;;;4.80;2.70;;;;;;;4.10;60.10;99564.77;1670859;85;21248;-61
2021/03/18 03:35:41;;;;;;;8.15;2.87;;;;;;;4.05;60.26;99567.68;1670674;85;21129;-64
2021/03/18 03:38:08;;;;;;;7.87;2.87;;;;;;;4.00;60.28;99568.72;1670721;86;21090;-62
2021/03/18 03:40:36;;;;;;;7.47;3.00;;;;;;;3.94;60.58;99569.42;1670790;85;21324;-62
2021/03/18 03:43:03;;;;;;;9.48;2.72;;;;;;;3.90;60.80;99576.19;1670779;85;21333;-63
2021/03/18 03:45:32;;;;;;;13.75;3.22;;;;;;;3.87;61.04;99580.09;1670690;86;21107;-63
2021/03/18 03:47:59;;;;;;;9.00;3.10;;;;;;;3.87;61.33;99580.09;1670706;85;21205;-62
2021/03/18 03:50:28;;;;;;;7.67;3.08;;;;;;;3.86;61.76;99575.69;1670795;85;21299;-63
2021/03/18 03:53:09;;;;;;;10.58;3.25;;;;;;;3.83;62.11;99580.10;1670713;86;21083;-62
2021/03/18 03:56:16;;;;;;;14.40;3.60;;;;;;;3.81;62.39;99580.27;1670691;85;21784;-62
2021/03/18 03:58:57;;;;;;;12.37;3.87;;;;;;;3.84;62.70;99584.50;1670675;85;21242;-61
2021/03/18 04:01:40;;;;;;;9.08;3.30;;;;;;;3.84;63.08;99580.44;1670844;85;21246;-61
2021/03/18 04:04:15;;;;;;;5.60;3.40;;;;;;;3.83;63.45;99582.81;1668549;85;21756;-61
2021/03/18 04:06:43;;;;;;;10.03;3.75;;;;;;;3.79;63.90;99586.89;1670722;85;21395;-62
2021/03/18 04:09:14;;;;;;;10.82;3.60;;;;;;;3.74;64.20;99585.20;1670617;85;21285;-61
2021/03/18 04:11:43;;;;;;;7.72;3.95;;;;;;;3.69;64.54;99588.44;1670756;85;21039;-63
2021/03/18 04:14:12;;;;;;;11.00;3.90;;;;;;;3.63;64.77;99593.20;1670765;85;21074;-62
2021/03/18 04:16:42;;;;;;;9.13;3.60;;;;;;;3.61;65.07;99597.95;1670747;86;21027;-61
2021/03/18 04:19:13;;;;;;;7.62;3.67;;;;;;;3.61;65.33;99607.93;1670755;85;21059;-62
2021/03/18 04:21:42;;;;;;;16.82;4.30;;;;;;;3.60;65.58;99600.83;1670693;86;21300;-61
2021/03/18 04:24:11;;;;;;;8.45;3.75;;;;;;;3.59;65.79;99600.48;1675827;85;21384;-62
2021/03/18 04:26:40;;;;;;;11.60;3.92;;;;;;;3.60;66.09;99608.95;1670866;85;21071;-62
2021/03/18 04:29:07;;;;;;;12.33;4.20;;;;;;;3.64;66.32;99604.87;1670712;86;21839;-62
2021/03/18 04:31:39;;;;;;;9.73;4.78;;;;;;;3.63;66.56;99595.91;1670886;86;21348;-61
2021/03/18 04:34:08;;;;;;;9.30;4.17;;;;;;;3.60;66.84;99601.67;1670845;85;21335;-62
2021/03/18 04:36:36;;;;;;;11.48;4.15;;;;;;;3.61;67.01;99602.00;1653365;86;21364;-62
2021/03/18 04:39:05;;;;;;;9.78;4.50;;;;;;;3.66;67.31;99596.07;1670944;85;21078;-62
2021/03/18 04:41:33;;;;;;;8.95;4.58;;;;;;;3.67;67.55;99608.59;1670899;85;21105;-62
2021/03/18 04:44:01;;;;;;;12.15;4.33;;;;;;;3.66;67.78;99611.81;1671077;86;21071;-62
2021/03/18 04:46:29;;;;;;;11.38;6.12;;;;;;;3.66;67.91;99612.32;1670908;86;21201;-62
2021/03/18 04:48:59;;;;;;;9.33;4.47;;;;;;;3.68;68.08;99619.26;1670992;86;21198;-63
2021/03/18 04:51:26;;;;;;;14.80;4.95;;;;;;;3.68;68.19;99621.13;1670904;85;21360;-61
2021/03/18 04:53:54;;;;;;;12.07;4.90;;;;;;;3.74;68.27;99621.78;1670773;85;21111;-63
2021/03/18 04:56:21;;;;;;;14.73;5.08;;;;;;;3.78;68.37;99627.19;1672243;85;21110;-64
2021/03/18 04:58:49;;;;;;;10.80;4.60;;;;;;;3.81;68.36;99615.50;1630453;88;21454;-62
2021/03/18 05:01:17;;;;;;;16.25;5.78;;;;;;;3.85;68.34;99621.41;1649320;87;21214;-62
2021/03/18 05:03:45;;;;;;;13.53;5.08;;;;;;;3.87;68.32;99626.66;1649183;86;21068;-61
2021/03/18 05:06:14;;;;;;;11.93;4.95;;;;;;;3.89;68.33;99622.76;1649237;87;21883;-62
2021/03/18 05:08:41;;;;;;;12.98;5.30;;;;;;;3.90;68.37;99624.95;1649358;86;21348;-63
2021/03/18 05:11:09;;;;;;;18.17;5.80;;;;;;;3.92;68.42;99624.30;1649295;87;21311;-61
2021/03/18 05:13:37;;;;;;;12.98;5.17;;;;;;;3.92;68.33;99625.66;1649305;87;21444;-61
2021/03/18 05:16:07;;;;;;;14.78;5.67;;;;;;;3.91;68.21;99622.11;1649214;86;21084;-62
2021/03/18 05:18:34;;;;;;;10.70;5.90;;;;;;;3.95;68.21;99629.38;1649301;87;21899;-64
2021/03/18 05:21:04;;;;;;;20.65;6.15;;;;;;;3.94;68.15;99628.53;1649305;86;21696;-62
2021/03/18 05:23:31;;;;;;;16.45;5.35;;;;;;;3.92;68.33;99629.72;1649230;87;21072;-63
2021/03/18 05:25:59;;;;;;;12.03;5.28;;;;;;;3.99;68.41;99638.85;1649050;86;21139;-62
2021/03/18 05:28:27;;;;;;;12.68;5.55;;;;;;;4.03;68.43;99635.62;1649185;86;21076;-62
2021/03/18 05:30:54;;;;;;;11.65;5.55;;;;;;;4.09;68.41;99638.98;1649129;86;21076;-62
2021/03/18 05:33:22;;;;;;;15.72;5.12;;;;;;;4.16;68.25;99636.93;1649150;86;21171;-62
2021/03/18 05:35:50;;;;;;;14.18;6.22;;;;;;;4.21;68.17;99642.67;1649099;86;21111;-62
2021/03/18 05:38:19;;;;;;;17.50;5.90;;;;;;;4.25;68.02;99646.20;1648787;86;21227;-62
2021/03/18 05:40:52;;;;;;;14.43;6.00;;;;;;;4.27;67.94;99647.39;1649185;86;21277;-62
2021/03/18 05:43:20;;;;;;;14.45;5.80;;;;;;;4.32;67.86;99655.84;1649255;86;21314;-62
2021/03/18 05:45:48;;;;;;;13.25;5.75;;;;;;;4.38;67.76;99651.06;1623150;86;21291;-62
2021/03/18 05:48:19;;;;;;;16.20;6.00;;;;;;;4.42;67.56;99655.96;1649224;87;21083;-62
2021/03/18 05:50:47;;;;;;;14.43;5.87;;;;;;;4.46;67.39;99660.52;1649165;87;21422;-61
2021/03/18 05:53:17;;;;;;;13.15;5.87;;;;;;;4.49;67.23;99657.45;1649246;87;21087;-63
2021/03/18 05:55:46;;;;;;;14.35;6.55;;;;;;;4.51;67.20;99662.19;1649795;86;21226;-62
2021/03/18 05:58:14;;;;;;;14.40;6.00;;;;;;;4.56;67.07;99665.77;1656416;85;21063;-62
2021/03/18 06:00:42;;;;;;;14.50;6.00;;;;;;;4.59;66.93;99666.77;1656262;86;21243;-61
2021/03/18 06:03:09;;;;;;;15.65;6.05;;;;;;;4.66;66.79;99674.53;1656542;86;21079;-62
2021/03/18 06:05:39;;;;;;;13.85;6.40;;;;;;;4.63;66.55;99663.52;1653069;86;21069;-63
2021/03/18 06:08:08;;;;;;;15.25;6.70;;;;;;;4.64;66.65;99674.70;1656351;86;21203;-63
2021/03/18 06:10:35;;;;;;;14.93;6.62;;;;;;;4.66;66.49;99675.88;1656237;85;21667;-62
2021/03/18 06:13:03;;;;;;;14.73;6.30;;;;;;;4.62;66.40;99678.62;1656165;85;21170;-62
2021/03/18 06:15:30;;;;;;;16.07;6.33;;;;;;;4.61;66.31;99676.93;1656193;85;21308;-62
2021/03/18 06:17:58;;;;;;;12.15;5.37;;;;;;;4.53;65.99;99672.87;1656220;85;21366;-63
2021/03/18 06:20:29;;;;;;;10.08;5.28;;;;;;;4.44;66.30;99676.13;1656272;86;21115;-63
2021/03/18 06:22:59;;;;;;;13.38;6.08;;;;;;;4.45;66.42;99677.82;1656272;85;21242;-63
2021/03/18 06:25:37;;;;;;;16.82;6.30;;;;;;;4.41;66.43;99686.81;1656205;86;21119;-62
2021/03/18 06:28:27;;;;;;;14.10;6.60;;;;;;;4.40;66.51;99685.12;1656554;86;21297;-62
2021/03/18 06:31:03;;;;;;;16.00;6.72;;;;;;;4.40;66.68;99691.06;1656303;86;21229;-62
2021/03/18 06:33:41;;;;;;;16.02;6.85;;;;;;;4.40;66.82;99689.70;1684209;84;21510;-62
2021/03/18 06:36:21;;;;;;;25.15;10.53;;;;;;;4.38;66.81;99687.17;1682374;85;21091;-62
2021/03/18 06:39:15;;;;;;;12.53;6.30;;;;;;;4.43;66.83;99690.71;1683908;83;21333;-62
2021/03/18 06:41:45;;;;;;;14.83;6.20;;;;;;;4.50;66.88;99690.85;1684164;84;21050;-63
2021/03/18 06:44:30;;;;;;;17.57;6.80;;;;;;;4.54;66.70;99686.25;1684221;85;21113;-63
2021/03/18 06:47:08;;;;;;;15.03;7.55;;;;;;;4.54;66.60;99688.97;1684132;84;21184;-63
2021/03/18 06:49:36;;;;;;;18.15;6.12;;;;;;;4.56;66.70;99686.95;1684203;84;21046;-62
2021/03/18 06:52:09;;;;;;;16.73;6.87;;;;;;;4.60;66.67;99684.73;1684309;84;21734;-62
2021/03/18 06:54:43;;;;;;;23.52;6.60;;;;;;;4.62;66.53;99693.03;1683989;84;21056;-65
2021/03/18 06:57:11;;;;;;;20.90;6.53;;;;;;;4.68;66.31;99690.13;1685256;85;21079;-64
2021/03/18 06:59:42;;;;;;;18.80;6.85;;;;;;;4.76;66.33;99690.92;1686333;84;21585;-61
2021/03/18 07:02:12;;;;;;;17.82;6.40;;;;;;;4.88;66.18;99691.36;1686521;85;21266;-64
2021/03/18 07:04:48;;;;;;;16.10;6.75;;;;;;;4.99;65.94;99690.95;1686441;84;21856;-63
2021/03/18 07:07:17;;;;;;;13.75;6.60;;;;;;;5.05;65.59;99690.75;1686407;85;21405;-63
2021/03/18 07:09:46;;;;;;;22.48;8.78;;;;;;;5.12;65.04;99693.59;1686329;84;21198;-62
2021/03/18 07:12:18;;;;;;;19.37;7.72;;;;;;;5.17;65.00;99700.17;1686509;84;21221;-63
2021/03/18 07:14:47;;;;;;;19.00;7.33;;;;;;;5.27;64.81;99698.09;1686425;84;21111;-64
2021/03/18 07:17:21;;;;;;;16.32;6.47;;;;;;;5.35;64.70;99702.63;1686432;85;21075;-63
2021/03/18 07:19:50;;;;;;;19.52;7.17;;;;;;;5.38;64.02;99701.75;1686311;84;21067;-62
2021/03/18 07:22:19;;;;;;;15.90;6.30;;;;;;;5.39;63.97;99700.72;1686080;85;21672;-62
2021/03/18 07:24:53;;;;;;;12.23;7.10;;;;;;;5.47;63.81;99697.09;1686420;84;21270;-63
2021/03/18 07:27:21;;;;;;;17.92;7.03;;;;;;;5.47;63.58;99699.81;1686582;84;21214;-62
2021/03/18 07:29:50;;;;;;;15.70;6.90;;;;;;;5.47;63.61;99699.81;1686465;85;21323;-61
2021/03/18 07:32:17;;;;;;;18.80;7.70;;;;;;;5.49;63.30;99702.34;1686437;85;21087;-63
2021/03/18 07:34:46;;;;;;;18.40;7.30;;;;;;;5.46;63.30;99702.20;1686470;84;21143;-63
2021/03/18 07:37:13;;;;;;;17.17;7.25;;;;;;;5.43;63.31;99702.55;1686433;84;21329;-62
2021/03/18 07:39:41;;;;;;;15.13;6.53;;;;;;;5.41;63.36;99699.18;1686324;84;21099;-62
2021/03/18 07:42:09;;;;;;;16.40;6.87;;;;;;;5.44;63.15;99700.17;1686368;85;21834;-62
2021/03/18 07:44:37;;;;;;;22.60;6.80;;;;;;;5.47;62.99;99696.25;1686418;85;21333;-63
2021/03/18 07:47:04;;;;;;;16.52;7.40;;;;;;;5.52;63.13;99710.13;1686344;85;21862;-63
2021/03/18 07:49:39;;;;;;;18.75;6.95;;;;;;;5.63;62.87;99706.98;1686417;84;21056;-63
2021/03/18 07:52:09;;;;;;;17.48;6.87;;;;;;;5.70;62.71;99703.86;1686448;85;21211;-62
2021/03/18 07:54:37;;;;;;;26.60;7.62;;;;;;;5.81;62.71;99702.05;1620285;85;21075;-63
2021/03/18 07:57:07;;;;;;;14.98;6.42;;;;;;;5.94;62.47;99701.48;1686298;85;21345;-63
2021/03/18 07:59:35;;;;;;;16.95;7.60;;;;;;;6.02;62.17;99700.89;1641197;85;21887;-62
2021/03/18 08:02:22;;;;;;;15.05;6.65;;;;;;;6.09;61.43;99696.91;1686319;84;21663;-63
2021/03/18 08:04:53;;;;;;;17.25;6.92;;;;;;;6.06;61.31;99705.95;1686054;85;21099;-62
2021/03/18 08:07:43;;;;;;;13.85;6.30;;;;;;;6.00;61.39;99698.88;1684953;85;21092;-62
2021/03/18 08:10:30;;;;;;;12.00;6.42;;;;;;;6.06;61.29;99699.16;1686437;85;21037;-63
2021/03/18 08:13:01;;;;;;;14.05;7.00;;;;;;;6.01;60.82;99704.64;1686150;84;21083;-62
2021/03/18 08:15:43;;;;;;;15.72;5.97;;;;;;;6.00;61.20;99704.83;1676015;85;21425;-64
2021/03/18 08:18:22;;;;;;;18.12;6.03;;;;;;;6.06;60.88;99712.76;1663886;85;21088;-63
2021/03/18 08:20:57;;;;;;;15.80;5.62;;;;;;;6.02;60.64;99706.33;1677065;85;21047;-62
2021/03/18 08:23:32;;;;;;;18.35;6.15;;;;;;;6.04;60.78;99702.91;1676916;85;21082;-62
2021/03/18 08:26:11;;;;;;;12.73;6.30;;;;;;;6.05;60.16;99701.03;1677356;85;21425;-62
2021/03/18 08:28:47;;;;;;;13.15;6.03;;;;;;;6.04;60.37;99696.63;1677185;85;21254;-66
2021/03/18 08:31:19;;;;;;;12.17;6.03;;;;;;;6.13;60.71;99694.67;1677409;85;21101;-63
2021/03/18 08:33:55;;;;;;;16.65;6.60;;;;;;;6.29;60.73;99695.33;1676897;85;21169;-62
2021/03/18 08:36:35;;;;;;;17.80;6.92;;;;;;;6.39;59.94;99693.69;1669799;85;21090;-64
2021/03/18 08:39:48;;;;;;;18.48;6.75;;;;;;;6.43;59.64;99692.28;1621337;88;21217;-63
2021/03/18 08:42:35;;;;;;;20.82;8.60;;;;;;;6.51;59.17;99695.45;1646551;86;21189;-63
2021/03/18 08:45:22;;;;;;;;;;;;;;;6.50;58.34;99697.33;1642290;85;21332;-66
2021/03/18 08:47:56;;;;;;;16.20;5.33;;;;;;;6.48;57.78;99692.55;1637544;85;20231;-63
2021/03/18 08:50:30;;;;;;;13.68;5.40;;;;;;;6.48;57.74;99698.00;1645299;85;21082;-66
2021/03/18 08:52:58;;;;;;;19.10;5.95;;;;;;;6.56;57.12;99697.09;1650008;86;21133;-67
2021/03/18 08:55:45;;;;;;;16.23;5.60;;;;;;;6.57;56.91;99705.06;1652528;86;21825;-67
2021/03/18 08:58:16;;;;;;;12.43;4.80;;;;;;;6.66;56.59;99707.16;1649100;85;21141;-67
2021/03/18 09:00:45;;;;;;;9.95;4.45;;;;;;;6.77;56.06;99705.83;1659304;85;21250;-68
2021/03/18 09:03:19;;;;;;;13.35;5.10;;;;;;;6.85;56.12;99705.73;1654866;86;21083;-65
2021/03/18 09:06:00;;;;;;;13.58;4.95;;;;;;;6.93;56.11;99702.38;1653228;85;21106;-65
2021/03/18 09:08:35;;;;;;;13.75;4.72;;;;;;;7.01;55.93;99705.50;1652393;86;21111;-63
2021/03/18 09:11:17;;;;;;;9.65;4.33;;;;;;;7.11;55.29;99699.74;1633456;86;21136;-64
2021/03/18 09:13:53;;;;;;;8.60;4.03;;;;;;;7.22;54.73;99702.84;1660130;85;21666;-62
2021/03/18 09:16:33;;;;;;;11.60;4.42;;;;;;;7.34;53.82;99700.44;1629456;86;21081;-61
2021/03/18 09:19:19;;;;;;;14.15;4.80;;;;;;;7.42;53.63;99693.50;1632341;87;21054;-65
2021/03/18 09:22:02;;;;;;;8.90;3.67;;;;;;;7.51;52.93;99701.02;1628823;87;21237;-62
2021/03/18 09:24:49;;;;;;;11.57;3.95;;;;;;;7.58;52.26;99701.93;1655920;86;21127;-62
2021/03/18 09:27:22;;;;;;;8.88;3.35;;;;;;;7.60;50.90;99688.42;1659406;86;21090;-63
2021/03/18 09:29:53;;;;;;;14.58;3.50;;;;;;;7.60;50.57;99706.15;1659366;85;21082;-64
2021/03/18 09:32:28;;;;;;;12.00;3.55;;;;;;;7.57;49.91;99701.09;1603699;88;21106;-64
2021/03/18 09:34:59;;;;;;;11.57;3.50;;;;;;;7.58;48.54;99708.23;1632626;88;21137;-65
2021/03/18 09:37:36;;;;;;;9.43;3.12;;;;;;;7.51;49.11;99699.66;1630559;88;21965;-67
2021/03/18 09:40:18;;;;;;;8.50;3.30;;;;;;;7.48;48.79;99702.26;1632315;88;21089;-64
2021/03/18 09:42:54;;;;;;;10.60;3.95;;;;;;;7.40;48.61;99702.91;1637545;86;21428;-63
2021/03/18 09:45:29;;;;;;;11.60;3.02;;;;;;;7.42;48.62;99708.49;1654122;86;21126;-62
2021/03/18 09:48:04;;;;;;;8.58;3.00;;;;;;;7.49;48.51;99712.13;1654094;86;21327;-64
2021/03/18 09:50:40;;;;;;;9.15;2.80;;;;;;;7.52;48.40;99713.09;1607302;86;21228;-65
2021/03/18 09:53:12;;;;;;;8.35;3.30;;;;;;;7.54;47.96;99708.81;1650017;86;21082;-67
2021/03/18 09:55:47;;;;;;;8.75;2.72;;;;;;;7.53;47.89;99696.22;1650479;86;21868;-67
2021/03/18 09:58:21;;;;;;;9.95;3.25;;;;;;;7.54;47.79;99696.03;1636843;86;21117;-66
2021/03/18 10:00:57;;;;;;;5.42;2.70;;;;;;;7.62;47.88;99698.62;1662394;85;21098;-68
2021/03/18 10:03:32;;;;;;;9.15;2.85;;;;;;;7.66;47.33;99704.52;1660490;85;21804;-67
2021/03/18 10:06:13;;;;;;;8.78;3.25;;;;;;;7.69;47.94;99709.58;1631446;87;21382;-68
2021/03/18 10:08:54;;;;;;;14.23;3.47;;;;;;;7.81;48.19;99701.23;1678315;85;21046;-67
2021/03/18 10:11:25;;;;;;;10.28;2.98;;;;;;;7.91;48.26;99707.18;1690760;85;21102;-65
2021/03/18 10:14:08;;;;;;;12.28;3.35;;;;;;;7.94;47.64;99709.52;1690156;85;21197;-63
2021/03/18 10:16:40;;;;;;;12.20;3.77;;;;;;;7.86;47.48;99706.93;1644605;85;21152;-68
2021/03/18 10:19:14;;;;;;;11.90;3.60;;;;;;;7.76;47.43;99706.39;1633565;86;21829;-64
2021/03/18 10:21:51;;;;;;;12.10;3.27;;;;;;;7.69;47.87;99701.41;1616385;86;21074;-65
2021/03/18 10:24:25;;;;;;;10.35;3.60;;;;;;;7.72;47.81;99712.44;1660770;86;21086;-63
2021/03/18 10:27:19;;;;;;;9.20;3.50;;;;;;;7.73;48.11;99702.70;1660825;86;21313;-65
2021/03/18 10:30:09;;;;;;;8.50;4.12;;;;;;;7.75;48.21;99707.44;1660836;86;21799;-64
2021/03/18 10:33:05;;;;;;;12.03;3.60;;;;;;;7.70;48.80;99704.97;1679268;85;21285;-64
2021/03/18 10:35:43;;;;;;;9.20;3.37;;;;;;;7.55;49.04;99705.05;1685006;84;21369;-63
2021/03/18 10:38:19;;;;;;;10.35;3.27;;;;;;;7.53;48.91;99709.84;1664316;85;21340;-65
2021/03/18 10:40:54;;;;;;;8.45;4.08;;;;;;;7.50;49.00;99711.08;1642907;85;21071;-64
2021/03/18 10:43:39;;;;;;;12.53;3.40;;;;;;;7.44;49.35;99713.74;1665293;85;21358;-65
2021/03/18 10:46:13;;;;;;;9.73;3.70;;;;;;;7.42;49.22;99715.30;1662041;86;21853;-67
2021/03/18 10:48:52;;;;;;;9.18;2.87;;;;;;;7.39;49.44;99727.11;1643372;85;21098;-66
2021/03/18 10:51:25;;;;;;;8.38;4.12;;;;;;;7.33;50.09;99715.62;1634031;87;21783;-65
2021/03/18 10:53:59;;;;;;;16.20;4.50;;;;;;;7.27;50.75;99719.97;1622684;86;21361;-63
2021/03/18 10:56:30;;;;;;;12.88;4.28;;;;;;;7.21;51.12;99725.67;1654536;86;21376;-63
2021/03/18 10:59:18;;;;;;;13.18;3.85;;;;;;;7.10;51.71;99727.50;1635363;87;21146;-64
2021/03/18 11:02:03;;;;;;;12.95;5.83;;;;;;;7.04;52.10;99725.55;1635088;87;21212;-65
2021/03/18 11:04:57;;;;;;;12.37;5.60;;;;;;;6.97;52.77;99728.70;1669414;85;21247;-62
2021/03/18 11:07:28;;;;;;;10.03;5.47;;;;;;;6.96;52.83;99732.46;1643685;86;21405;-66
2021/03/18 11:10:14;;;;;;;9.25;4.87;;;;;;;6.95;52.89;99724.81;1659323;86;21074;-63
2021/03/18 11:13:03;;;;;;;15.68;4.60;;;;;;;6.94;52.52;99721.77;1645688;86;21102;-60
2021/03/18 11:16:03;;;;;;;11.97;4.28;;;;;;;6.89;52.26;99720.13;1660519;86;21118;-63
2021/03/18 11:18:40;;;;;;;13.00;4.47;;;;;;;6.84;52.39;99719.02;1657758;86;21819;-61
2021/03/18 11:21:25;;;;;;;13.50;5.12;;;;;;;6.87;52.58;99717.27;1631712;86;21913;-61
2021/03/18 11:24:24;;;;;;;18.42;5.25;;;;;;;6.87;52.56;99718.63;1654323;84;21694;-61
2021/03/18 11:27:09;;;;;;;11.57;4.72;;;;;;;6.77;52.75;99723.53;1633413;86;21730;-60
2021/03/18 11:29:43;;;;;;;14.55;4.65;;;;;;;6.60;53.48;99712.84;1685413;85;21055;-63
2021/03/18 11:32:17;;;;;;;14.90;5.20;;;;;;;6.59;54.46;99711.16;1646796;85;21276;-62
2021/03/18 11:35:04;;;;;;;16.80;6.33;;;;;;;6.67;54.62;99711.05;1646234;85;21315;-60
2021/03/18 11:37:40;;;;;;;14.65;5.72;;;;;;;6.76;54.80;99712.31;1689342;85;21874;-63
2021/03/18 11:40:15;;;;;;;12.63;5.62;;;;;;;6.76;55.34;99715.88;1690263;85;21444;-62
2021/03/18 11:42:49;;;;;;;18.30;6.53;;;;;;;6.75;55.40;99722.88;1688030;85;21101;-60
2021/03/18 11:45:20;;;;;;;;;;;;;;;6.68;55.58;99719.55;1664614;86;21134;-60
2021/03/18 11:47:51;;;;;;;;;;;;;;;6.65;55.71;99719.93;1662158;86;20230;-61
2021/03/18 11:50:26;;;;;;;20.68;7.30;;;;;;;6.51;56.00;99717.22;1662167;86;20298;-63
2021/03/18 11:53:05;;;;;;;15.88;7.37;;;;;;;6.39;56.33;99717.33;1638831;85;21122;-60
2021/03/18 11:55:40;;;;;;;13.13;6.25;;;;;;;6.33;56.63;99718.92;1663827;84;21057;-62
2021/03/18 11:58:12;;;;;;;15.90;6.15;;;;;;;6.32;56.85;99726.75;1631357;86;21830;-64
2021/03/18 12:00:47;;;;;;;16.77;6.30;;;;;;;6.39;56.90;99726.85;1626013;86;21106;-62
2021/03/18 12:03:24;;;;;;;9.45;5.15;;;;;;;6.45;56.87;99720.66;1642279;86;21127;-63
2021/03/18 12:05:53;;;;;;;13.58;5.20;;;;;;;6.54;56.63;99719.56;1650078;86;21208;-63